Time;durP1;ratioP1;P1;durP2;ratioP2;P2;SDS_P1;SDS_P2;PMS_P1;PMS_P2;Temp;Humidity;BMP_temperature;BMP_pressure;BME280_temperature;BME280_humidity;BME280_pressure;Samples;Min_cycle;Max_cycle;Signal;HPM_P1;HPM_P2
2021/05/28 00:00:20;;;;;;;5.00;3.47;;;;;;;9.79;100.00;95975.47;1013627;29;20020;-79
2021/05/28 00:00:51;;;;;;;7.22;3.63;;;;;;;9.85;100.00;95979.25;1014037;29;20064;-78
2021/05/28 00:01:22;;;;;;;6.55;3.60;;;;;;;9.87;100.00;95976.44;1010819;29;20032;-79
2021/05/28 00:01:52;;;;;;;5.40;3.60;;;;;;;9.85;100.00;95973.97;1012839;29;20105;-78
2021/05/28 00:02:23;;;;;;;5.70;3.83;;;;;;;9.81;100.00;95960.22;1015023;29;20021;-77
2021/05/28 00:02:53;;;;;;;4.57;3.17;;;;;;;9.89;100.00;95983.25;1012876;29;20104;-78
2021/05/28 00:03:24;;;;;;;6.00;3.53;;;;;;;9.86;100.00;95982.72;1017440;29;20024;-79
2021/05/28 00:03:55;;;;;;;6.72;3.78;;;;;;;9.89;100.00;95980.59;1012051;29;20025;-78
2021/05/28 00:04:25;;;;;;;8.00;3.92;;;;;;;9.74;100.00;95961.06;1006134;29;20426;-78
2021/05/28 00:04:56;;;;;;;5.70;3.65;;;;;;;9.78;100.00;95960.53;1005736;29;20029;-77
2021/05/28 00:05:27;;;;;;;5.75;3.50;;;;;;;9.83;100.00;95962.69;1009590;29;20017;-78
2021/05/28 00:05:57;;;;;;;6.53;3.38;;;;;;;9.81;100.00;95965.50;1009652;29;20033;-79
2021/05/28 00:06:29;;;;;;;4.85;3.13;;;;;;;9.95;100.00;95981.72;1009604;29;20076;-78
2021/05/28 00:06:59;;;;;;;5.78;3.65;;;;;;;9.92;100.00;95974.94;1005421;29;20021;-78
2021/05/28 00:07:30;;;;;;;6.45;3.72;;;;;;;9.95;100.00;95982.56;1005656;29;20037;-79
2021/05/28 00:08:01;;;;;;;6.93;3.35;;;;;;;9.69;100.00;95947.50;1001469;29;20497;-79
2021/05/28 00:08:31;;;;;;;5.22;3.50;;;;;;;9.92;100.00;95984.72;1001681;29;20036;-78
2021/05/28 00:09:03;;;;;;;5.43;3.10;;;;;;;9.78;100.00;95959.72;1009275;29;20029;-79
2021/05/28 00:09:34;;;;;;;3.97;3.00;;;;;;;9.80;100.00;95955.94;1001490;29;20029;-78
2021/05/28 00:10:05;;;;;;;4.50;3.30;;;;;;;9.87;100.00;95964.00;1009153;29;20127;-77
2021/05/28 00:10:36;;;;;;;4.80;3.28;;;;;;;9.96;100.00;95989.53;1009328;29;20029;-78
2021/05/28 00:11:07;;;;;;;4.32;3.10;;;;;;;9.99;100.00;95977.72;1005474;29;20076;-78
2021/05/28 00:11:38;;;;;;;7.47;3.88;;;;;;;9.96;100.00;95973.59;1009286;29;20115;-77
2021/05/28 00:12:09;;;;;;;5.60;3.38;;;;;;;9.96;100.00;95975.41;1009140;29;20052;-78
2021/05/28 00:12:40;;;;;;;5.45;3.63;;;;;;;9.86;100.00;95958.84;1005136;29;20437;-78
2021/05/28 00:13:11;;;;;;;4.35;3.05;;;;;;;10.01;100.00;95983.69;1005408;29;20097;-78
2021/05/28 00:13:41;;;;;;;4.32;2.95;;;;;;;9.91;100.00;95962.69;1009315;29;20029;-78
2021/05/28 00:14:12;;;;;;;5.18;3.63;;;;;;;9.87;100.00;95974.59;1009169;29;20025;-78
2021/05/28 00:14:43;;;;;;;5.38;3.38;;;;;;;9.68;100.00;95936.03;1005287;29;20377;-78
2021/05/28 00:15:14;;;;;;;5.15;3.13;;;;;;;9.84;100.00;95963.50;1009204;29;20098;-79
2021/05/28 00:15:44;;;;;;;5.05;3.38;;;;;;;9.85;100.00;95967.84;1009310;29;20029;-78
2021/05/28 00:16:15;;;;;;;5.65;3.38;;;;;;;9.83;100.00;95973.31;997859;29;20028;-77
2021/05/28 00:16:46;;;;;;;7.13;3.92;;;;;;;9.81;100.00;95973.47;1005186;29;20397;-79
2021/05/28 00:17:16;;;;;;;4.10;2.97;;;;;;;9.92;100.00;95985.53;1005480;29;20017;-78
2021/05/28 00:17:47;;;;;;;5.68;2.95;;;;;;;9.91;100.00;95978.59;1001641;29;20036;-78
2021/05/28 00:18:18;;;;;;;4.60;3.35;;;;;;;9.92;100.00;95972.28;1008941;29;20024;-78
2021/05/28 00:18:48;;;;;;;4.00;3.10;;;;;;;9.78;100.00;95949.94;1013241;29;20410;-78
2021/05/28 00:19:19;;;;;;;5.65;3.10;;;;;;;9.89;100.00;95977.94;1013084;29;20025;-77
2021/05/28 00:19:49;;;;;;;4.90;3.00;;;;;;;9.82;100.00;95955.72;1005393;29;20396;-78
2021/05/28 00:20:20;;;;;;;4.30;2.88;;;;;;;9.73;100.00;95946.16;1005305;29;20450;-79
2021/05/28 00:20:51;;;;;;;6.35;3.85;;;;;;;9.94;100.00;95980.88;1005387;29;20021;-78
2021/05/28 00:21:21;;;;;;;4.72;3.22;;;;;;;9.91;100.00;95973.28;1013145;29;20028;-78
2021/05/28 00:21:52;;;;;;;4.45;3.25;;;;;;;9.94;100.00;95970.28;1009172;29;20483;-77
2021/05/28 00:22:22;;;;;;;4.88;3.30;;;;;;;9.96;100.00;95976.25;1005464;29;20022;-78
2021/05/28 00:22:53;;;;;;;5.03;3.05;;;;;;;9.79;100.00;95954.25;1013040;29;20016;-78
2021/05/28 00:23:24;;;;;;;4.70;2.95;;;;;;;9.94;100.00;95985.38;1017068;29;20028;-77
2021/05/28 00:23:54;;;;;;;5.03;3.22;;;;;;;9.86;100.00;95962.38;1013029;29;20117;-77
2021/05/28 00:24:25;;;;;;;4.25;3.08;;;;;;;9.90;100.00;95981.41;1009221;29;20403;-78
2021/05/28 00:24:56;;;;;;;6.28;3.63;;;;;;;9.93;100.00;95975.78;1009152;29;20025;-78
2021/05/28 00:25:28;;;;;;;4.10;3.28;;;;;;;9.90;100.00;95970.81;1013108;29;20024;-79
2021/05/28 00:25:59;;;;;;;5.00;3.42;;;;;;;9.74;100.00;95955.78;1013393;29;20112;-78
2021/05/28 00:26:30;;;;;;;5.55;3.55;;;;;;;9.82;100.00;95963.69;1013036;29;20028;-78
2021/05/28 00:27:00;;;;;;;4.30;3.33;;;;;;;9.90;100.00;95971.63;1008678;29;20025;-78
2021/05/28 00:27:31;;;;;;;5.38;2.80;;;;;;;9.74;100.00;95958.44;1005294;29;20531;-77
2021/05/28 00:28:02;;;;;;;8.13;3.28;;;;;;;9.81;100.00;95967.34;1005239;29;20121;-78
2021/05/28 00:28:33;;;;;;;3.92;3.20;;;;;;;9.88;100.00;95983.41;1009351;29;20032;-79
2021/05/28 00:29:04;;;;;;;5.28;3.65;;;;;;;9.88;100.00;95970.97;1009300;29;20072;-78
2021/05/28 00:29:34;;;;;;;4.10;3.20;;;;;;;9.72;100.00;95942.69;1005368;29;20032;-78
2021/05/28 00:30:06;;;;;;;5.30;3.30;;;;;;;9.80;100.00;95958.56;1005385;29;20028;-77
2021/05/28 00:30:36;;;;;;;5.10;3.28;;;;;;;9.87;100.00;95981.75;1001377;29;20026;-77
2021/05/28 00:31:07;;;;;;;3.22;2.70;;;;;;;9.85;100.00;95973.97;1001322;29;20026;-77
2021/05/28 00:31:37;;;;;;;4.38;2.95;;;;;;;9.75;100.00;95962.72;1005375;29;20058;-78
2021/05/28 00:32:08;;;;;;;4.45;3.17;;;;;;;9.72;100.00;95973.66;1005566;29;20018;-77
2021/05/28 00:32:39;;;;;;;5.13;3.30;;;;;;;9.78;100.00;95975.63;1006440;29;20025;-78
2021/05/28 00:33:09;;;;;;;6.40;3.45;;;;;;;9.79;100.00;95977.31;1006129;29;20029;-77
2021/05/28 00:33:40;;;;;;;6.15;3.50;;;;;;;9.68;100.00;95962.56;1005496;29;20029;-78
2021/05/28 00:34:11;;;;;;;5.90;3.47;;;;;;;9.80;100.00;95976.28;1005497;29;20033;-77
2021/05/28 00:34:42;;;;;;;5.10;3.53;;;;;;;9.75;100.00;95965.38;1005366;29;20029;-77
2021/05/28 00:35:13;;;;;;;4.97;3.22;;;;;;;9.73;100.00;95972.66;1005302;29;20029;-78
2021/05/28 00:35:43;;;;;;;5.38;3.10;;;;;;;9.70;100.00;95959.75;1009078;29;20457;-78
2021/05/28 00:36:14;;;;;;;6.07;3.33;;;;;;;9.72;100.00;95963.91;1009110;29;20032;-78
2021/05/28 00:36:45;;;;;;;5.00;3.60;;;;;;;9.76;100.00;95975.00;1005510;29;20029;-78
2021/05/28 00:37:17;;;;;;;5.25;3.20;;;;;;;9.73;100.00;95975.31;997538;29;20033;-77
2021/05/28 00:37:47;;;;;;;6.20;3.45;;;;;;;9.72;100.00;95971.00;1001436;29;20484;-78
2021/05/28 00:38:18;;;;;;;6.25;3.90;;;;;;;9.63;100.00;95954.28;1001470;29;20059;-78
2021/05/28 00:38:48;;;;;;;5.03;3.38;;;;;;;9.74;100.00;95972.50;1005548;29;20026;-78
2021/05/28 00:39:19;;;;;;;4.32;3.40;;;;;;;9.66;100.00;95959.25;1005255;29;20033;-78
2021/05/28 00:39:50;;;;;;;6.20;3.40;;;;;;;9.56;100.00;95946.22;1005316;29;20461;-78
2021/05/28 00:40:20;;;;;;;4.70;3.28;;;;;;;9.70;100.00;95970.34;1001518;29;20112;-78
2021/05/28 00:40:51;;;;;;;8.75;3.63;;;;;;;9.71;100.00;95972.03;1013074;29;20028;-78
2021/05/28 00:41:22;;;;;;;6.63;3.78;;;;;;;9.69;100.00;95958.09;1012935;29;20032;-78
2021/05/28 00:41:52;;;;;;;9.00;3.72;;;;;;;9.72;100.00;95966.53;1005444;29;20081;-78
2021/05/28 00:42:23;;;;;;;4.38;2.97;;;;;;;9.52;100.00;95931.63;1005373;29;20026;-78
2021/05/28 00:42:53;;;;;;;5.68;3.80;;;;;;;9.70;100.00;95965.91;1005358;29;20392;-78
2021/05/28 00:43:24;;;;;;;5.40;3.70;;;;;;;9.66;100.00;95958.44;1005464;29;20033;-78
2021/05/28 00:43:55;;;;;;;5.57;3.42;;;;;;;9.74;100.00;95966.38;1012964;29;20032;-80
2021/05/28 00:44:27;;;;;;;4.78;2.95;;;;;;;9.77;100.00;95971.31;1005390;29;20030;-78
2021/05/28 00:44:58;;;;;;;4.55;3.17;;;;;;;9.74;100.00;95961.91;1005370;29;20041;-79
2021/05/28 00:45:28;;;;;;;6.03;3.38;;;;;;;9.80;100.00;95971.84;1008984;29;20033;-79
2021/05/28 00:45:59;;;;;;;3.95;2.83;;;;;;;9.81;100.00;95968.16;1016882;29;20028;-78
2021/05/28 00:46:30;;;;;;;5.65;3.47;;;;;;;9.83;100.00;95973.31;1014242;29;20123;-78
2021/05/28 00:47:00;;;;;;;6.70;3.28;;;;;;;9.79;100.00;95972.00;1019744;29;20026;-79
2021/05/28 00:47:31;;;;;;;4.93;3.33;;;;;;;9.72;100.00;95973.66;1012423;29;20029;-78
2021/05/28 00:48:02;;;;;;;5.07;3.20;;;;;;;9.69;100.00;95974.84;1005449;29;20029;-78
2021/05/28 00:48:32;;;;;;;6.07;3.17;;;;;;;9.71;100.00;95972.03;1009287;29;20028;-79
2021/05/28 00:49:03;;;;;;;5.63;3.47;;;;;;;9.70;100.00;95962.41;1009449;29;20124;-79
2021/05/28 00:49:34;;;;;;;5.65;3.40;;;;;;;9.75;100.00;95973.31;1013181;29;20028;-77
2021/05/28 00:50:05;;;;;;;5.53;3.33;;;;;;;9.72;100.00;95963.91;1009226;29;20073;-79
2021/05/28 00:50:36;;;;;;;5.68;3.75;;;;;;;9.75;100.00;95960.06;1009035;29;20492;-78
2021/05/28 00:51:07;;;;;;;4.47;3.00;;;;;;;9.58;100.00;95936.25;1016917;29;20050;-78
2021/05/28 00:51:37;;;;;;;4.78;3.25;;;;;;;9.62;100.00;95945.50;1012986;29;20028;-78
2021/05/28 00:52:08;;;;;;;4.60;3.30;;;;;;;9.74;100.00;95959.25;1013139;29;20459;-78
2021/05/28 00:52:39;;;;;;;4.93;3.35;;;;;;;9.75;100.00;95960.91;1012935;29;20024;-78
2021/05/28 00:53:09;;;;;;;3.58;2.78;;;;;;;9.73;100.00;95954.09;1005314;29;20025;-78
2021/05/28 00:53:40;;;;;;;6.90;3.08;;;;;;;9.75;100.00;95968.03;1009284;29;20017;-78
2021/05/28 00:54:11;;;;;;;5.80;3.00;;;;;;;9.72;100.00;95963.03;1009195;29;20017;-78
2021/05/28 00:54:41;;;;;;;5.13;3.22;;;;;;;9.67;100.00;95957.47;1013243;29;20077;-79
2021/05/28 00:55:13;;;;;;;4.80;3.10;;;;;;;9.68;100.00;95961.75;1009288;29;20021;-79
2021/05/28 00:55:44;;;;;;;5.78;3.20;;;;;;;9.60;100.00;95952.00;1001472;29;20040;-78
2021/05/28 00:56:15;;;;;;;4.47;2.90;;;;;;;9.69;100.00;95966.06;1001254;29;20018;-79
2021/05/28 00:56:45;;;;;;;4.78;3.15;;;;;;;9.60;100.00;95950.16;1005476;29;20049;-79
2021/05/28 00:57:16;;;;;;;4.43;3.03;;;;;;;9.58;100.00;95940.75;1005494;29;20014;-78
2021/05/28 00:57:46;;;;;;;6.15;3.63;;;;;;;9.65;100.00;95965.56;1001394;29;20513;-78
2021/05/28 00:58:17;;;;;;;3.88;2.95;;;;;;;9.72;100.00;95963.91;1005111;29;20032;-78
2021/05/28 00:58:48;;;;;;;4.95;3.17;;;;;;;9.73;100.00;95967.38;1009006;29;20032;-78
2021/05/28 00:59:19;;;;;;;5.40;3.00;;;;;;;9.73;100.00;95959.41;1013093;29;20573;-78
2021/05/28 00:59:51;;;;;;;5.80;2.70;;;;;;;9.68;100.00;95975.81;1009079;29;20025;-78
2021/05/28 01:00:25;;;;;;;4.40;3.25;;;;;;;9.53;100.00;95951.84;1005249;29;20020;-78
2021/05/28 01:00:55;;;;;;;6.47;2.80;;;;;;;9.59;100.00;95958.28;1009083;29;20403;-77
2021/05/28 01:01:26;;;;;;;5.00;2.88;;;;;;;9.61;100.00;95951.84;1005355;29;20018;-78
2021/05/28 01:01:57;;;;;;;4.28;2.88;;;;;;;9.61;100.00;95957.13;1009087;29;20112;-78
2021/05/28 01:02:27;;;;;;;5.65;2.88;;;;;;;9.71;100.00;95966.72;1012876;29;20025;-78
2021/05/28 01:02:58;;;;;;;4.28;2.60;;;;;;;9.80;100.00;95973.63;1009010;29;20025;-78
2021/05/28 01:03:28;;;;;;;4.28;2.97;;;;;;;9.70;100.00;95973.84;1005178;29;20021;-77
2021/05/28 01:03:59;;;;;;;4.03;3.22;;;;;;;9.52;100.00;95952.81;1013071;29;20021;-78
2021/05/28 01:04:30;;;;;;;5.30;3.30;;;;;;;9.67;100.00;95970.72;1009093;29;20021;-78
2021/05/28 01:05:01;;;;;;;3.78;2.70;;;;;;;9.72;100.00;95982.47;1008893;29;20021;-78
2021/05/28 01:05:32;;;;;;;6.22;3.40;;;;;;;9.61;100.00;95967.75;1013070;29;20024;-79
2021/05/28 01:06:03;;;;;;;5.57;3.10;;;;;;;9.49;100.00;95950.53;1008918;29;20487;-78
2021/05/28 01:06:34;;;;;;;6.03;3.10;;;;;;;9.59;100.00;95990.91;1009067;29;20017;-78
2021/05/28 01:07:05;;;;;;;3.80;2.83;;;;;;;9.48;100.00;95964.78;1012779;29;20021;-78
2021/05/28 01:07:35;;;;;;;5.85;2.78;;;;;;;9.40;100.00;95941.78;1016965;29;20055;-78
2021/05/28 01:08:06;;;;;;;4.68;3.03;;;;;;;9.56;100.00;95962.13;1008970;29;20373;-78
2021/05/28 01:08:37;;;;;;;4.93;3.00;;;;;;;9.51;100.00;95975.06;1009194;29;20028;-78
2021/05/28 01:09:07;;;;;;;6.63;3.40;;;;;;;9.58;100.00;95978.69;1008899;29;20021;-77
2021/05/28 01:09:39;;;;;;;4.82;3.13;;;;;;;9.58;100.00;95978.69;1005267;29;20022;-78
2021/05/28 01:10:11;;;;;;;5.80;3.20;;;;;;;9.58;100.00;95991.13;1008818;29;20464;-78
2021/05/28 01:10:41;;;;;;;3.97;3.25;;;;;;;9.58;100.00;95983.97;1008958;29;20021;-78
2021/05/28 01:11:12;;;;;;;4.00;3.17;;;;;;;9.52;100.00;95984.63;1005151;29;20058;-77
2021/05/28 01:11:43;;;;;;;5.25;3.25;;;;;;;9.54;100.00;95984.47;1001482;29;20030;-78
2021/05/28 01:12:13;;;;;;;4.07;3.00;;;;;;;9.53;100.00;95986.31;1009208;29;20021;-78
2021/05/28 01:12:44;;;;;;;3.95;2.97;;;;;;;9.52;100.00;95989.13;1009765;29;20025;-78
2021/05/28 01:13:15;;;;;;;5.15;3.50;;;;;;;9.46;100.00;95981.84;1005407;29;20041;-77
2021/05/28 01:13:45;;;;;;;5.70;3.40;;;;;;;9.58;100.00;95991.94;1009365;29;20033;-76
2021/05/28 01:14:16;;;;;;;4.78;3.35;;;;;;;9.58;100.00;95991.94;1013468;29;20043;-79
2021/05/28 01:14:50;;;;;;;5.60;3.17;;;;;;;9.50;100.00;95976.03;1013054;29;20020;-78
2021/05/28 01:15:21;;;;;;;6.97;3.10;;;;;;;9.52;100.00;95976.69;1012734;29;20106;-78
2021/05/28 01:15:51;;;;;;;6.47;3.35;;;;;;;9.32;100.00;95954.19;1013164;29;20650;-78
2021/05/28 01:16:22;;;;;;;5.25;3.28;;;;;;;9.57;100.00;95981.50;1013118;29;20021;-78
2021/05/28 01:16:53;;;;;;;3.97;3.00;;;;;;;9.56;100.00;95988.63;1004985;29;20480;-77
2021/05/28 01:17:23;;;;;;;3.97;2.85;;;;;;;9.51;100.00;95976.84;1001216;29;20033;-77
2021/05/28 01:17:54;;;;;;;5.07;2.80;;;;;;;9.60;100.00;95987.28;1008636;29;20041;-78
2021/05/28 01:18:24;;;;;;;5.20;3.25;;;;;;;9.61;100.00;95982.81;1010008;29;20028;-78
2021/05/28 01:18:55;;;;;;;4.30;2.95;;;;;;;9.63;100.00;95981.66;1013655;29;20024;-78
2021/05/28 01:19:26;;;;;;;5.55;3.17;;;;;;;9.62;100.00;95989.78;1010101;29;20029;-78
2021/05/28 01:19:57;;;;;;;4.68;2.92;;;;;;;9.49;100.00;95968.25;1006841;29;20085;-79
2021/05/28 01:20:27;;;;;;;6.18;3.55;;;;;;;9.42;100.00;95949.53;1014806;29;20025;-78
2021/05/28 01:20:58;;;;;;;4.55;3.40;;;;;;;9.44;100.00;95944.91;1010268;29;20027;-79
2021/05/28 01:21:28;;;;;;;4.22;2.90;;;;;;;9.65;100.00;95967.38;1006140;29;20033;-78
2021/05/28 01:22:05;;;;;;;5.50;3.28;;;;;;;9.75;100.00;95983.94;1014866;29;20024;-77
2021/05/28 01:22:37;;;;;;;5.75;3.67;;;;;;;9.69;100.00;95977.50;1014898;29;20111;-78
2021/05/28 01:23:08;;;;;;;4.03;2.95;;;;;;;9.69;100.00;95969.53;1007076;29;20029;-79
2021/05/28 01:23:38;;;;;;;4.95;3.08;;;;;;;9.68;100.00;95965.22;1010345;29;20082;-79
2021/05/28 01:24:09;;;;;;;6.43;3.38;;;;;;;9.70;100.00;95965.03;1011042;29;20020;-78
2021/05/28 01:24:40;;;;;;;6.93;3.00;;;;;;;9.74;100.00;95972.50;1003118;29;20026;-78
2021/05/28 01:25:11;;;;;;;4.47;2.97;;;;;;;9.71;100.00;95982.63;1002833;29;20026;-78
2021/05/28 01:25:42;;;;;;;3.95;2.83;;;;;;;9.62;100.00;95965.91;1001800;29;20074;-78
2021/05/28 01:26:12;;;;;;;4.10;2.80;;;;;;;9.74;100.00;95977.00;1001367;29;20036;-78
2021/05/28 01:26:43;;;;;;;5.10;2.88;;;;;;;9.79;100.00;95975.47;1005247;29;20029;-78
2021/05/28 01:27:14;;;;;;;4.13;2.88;;;;;;;9.70;100.00;95965.03;1001404;29;20477;-79
2021/05/28 01:27:44;;;;;;;5.55;3.30;;;;;;;9.73;100.00;95968.19;997652;29;20029;-78
2021/05/28 01:28:15;;;;;;;4.35;3.13;;;;;;;9.65;100.00;95948.81;1001225;29;20053;-78
2021/05/28 01:28:46;;;;;;;5.32;3.17;;;;;;;9.75;100.00;95978.63;1005186;29;20085;-77
2021/05/28 01:29:17;;;;;;;3.65;2.58;;;;;;;9.79;100.00;95980.78;1012786;29;20028;-79
2021/05/28 01:29:47;;;;;;;4.72;2.80;;;;;;;9.81;100.00;95977.97;1016700;29;20020;-78
2021/05/28 01:30:18;;;;;;;6.15;3.28;;;;;;;9.72;100.00;95966.53;1008927;29;20628;-78
2021/05/28 01:30:49;;;;;;;4.43;2.83;;;;;;;9.83;100.00;95978.59;1012946;29;20025;-79
2021/05/28 01:31:19;;;;;;;5.05;3.05;;;;;;;9.85;100.00;95979.25;1005119;29;20025;-78
2021/05/28 01:31:50;;;;;;;5.05;3.47;;;;;;;9.73;100.00;95964.72;1012800;29;20115;-78
2021/05/28 01:32:21;;;;;;;4.85;2.90;;;;;;;9.84;100.00;95980.28;1008979;29;20025;-78
2021/05/28 01:32:52;;;;;;;4.68;3.03;;;;;;;9.82;100.00;95979.59;1009039;29;20120;-78
2021/05/28 01:33:22;;;;;;;4.70;3.22;;;;;;;9.80;100.00;95971.84;1008953;29;20460;-78
2021/05/28 01:33:53;;;;;;;5.57;3.08;;;;;;;9.87;100.00;95982.56;1001641;29;20104;-78
2021/05/28 01:34:23;;;;;;;4.68;3.17;;;;;;;9.88;100.00;95981.59;1005166;29;20037;-79
2021/05/28 01:34:54;;;;;;;6.00;3.05;;;;;;;9.84;100.00;95979.44;1008977;29;20039;-78
2021/05/28 01:35:25;;;;;;;5.60;3.60;;;;;;;9.75;100.00;95979.47;1005414;29;20373;-79
2021/05/28 01:35:58;;;;;;;5.15;3.30;;;;;;;9.63;100.00;95964.91;1005481;29;20026;-78
2021/05/28 01:36:29;;;;;;;7.65;3.45;;;;;;;9.39;100.00;95939.28;1009133;29;20029;-78
2021/05/28 01:36:59;;;;;;;4.55;3.28;;;;;;;9.57;100.00;95955.81;1005293;29;20504;-79
2021/05/28 01:37:30;;;;;;;4.85;3.17;;;;;;;9.61;100.00;95967.75;1006075;29;20361;-78
2021/05/28 01:38:03;;;;;;;4.78;3.30;;;;;;;9.66;100.00;95975.16;1011701;29;20088;-78
2021/05/28 01:38:33;;;;;;;4.85;3.58;;;;;;;9.69;100.00;95981.97;1016781;29;20103;-78
2021/05/28 01:39:04;;;;;;;4.32;3.20;;;;;;;9.55;100.00;95959.63;1016868;29;20032;-78
2021/05/28 01:39:43;;;;;;;4.82;3.55;;;;;;;9.71;100.00;95985.28;1009202;29;20021;-78
2021/05/28 01:40:14;;;;;;;3.67;2.97;;;;;;;9.67;100.00;95982.13;1016112;29;20032;-78
2021/05/28 01:40:44;;;;;;;4.10;3.20;;;;;;;9.65;100.00;95973.53;1015793;29;20033;-77
2021/05/28 01:41:16;;;;;;;4.70;3.33;;;;;;;9.70;100.00;95980.97;1013256;29;20013;-78
2021/05/28 01:41:46;;;;;;;6.13;3.10;;;;;;;9.71;100.00;95979.97;1004971;29;20097;-79
2021/05/28 01:42:17;;;;;;;4.93;3.05;;;;;;;9.74;100.00;95983.13;1001110;29;20105;-78
2021/05/28 01:42:48;;;;;;;5.72;3.50;;;;;;;9.69;100.00;95977.50;1008037;29;20021;-80
2021/05/28 01:43:18;;;;;;;5.68;2.92;;;;;;;9.66;100.00;95979.66;1008679;29;20026;-77
2021/05/28 01:43:50;;;;;;;4.03;2.80;;;;;;;9.69;100.00;95980.13;1008122;29;20029;-78
2021/05/28 01:44:20;;;;;;;4.55;3.47;;;;;;;9.66;100.00;95979.66;1008212;29;20116;-77
2021/05/28 01:44:53;;;;;;;5.65;2.85;;;;;;;9.71;100.00;95982.63;1008324;29;20010;-77
2021/05/28 01:45:25;;;;;;;4.55;3.15;;;;;;;9.69;100.00;95977.50;1008710;29;20037;-77
2021/05/28 01:45:56;;;;;;;7.32;3.78;;;;;;;9.69;100.00;95982.78;1004327;29;20062;-78
2021/05/28 01:46:29;;;;;;;5.13;2.63;;;;;;;9.63;100.00;95971.03;1004435;29;20069;-79
2021/05/28 01:46:59;;;;;;;5.57;3.47;;;;;;;9.59;100.00;95966.25;1011586;29;20065;-78
2021/05/28 01:48:10;;;;;;;6.18;3.15;;;;;;;9.69;100.00;95976.66;776560;27;20557;-80
2021/05/28 01:48:41;;;;;;;7.78;3.22;;;;;;;9.63;100.00;95970.19;1006447;29;20022;-79
2021/05/28 01:49:15;;;;;;;5.32;3.50;;;;;;;9.60;100.00;95963.41;1008330;29;20025;-79
2021/05/28 01:49:45;;;;;;;6.72;3.88;;;;;;;9.40;100.00;95932.97;1014724;24;20057;-79
2021/05/28 01:50:16;;;;;;;6.82;3.30;;;;;;;9.43;100.00;95944.06;1004521;29;20785;-78
2021/05/28 01:50:47;;;;;;;5.55;3.15;;;;;;;9.66;100.00;95974.34;1005380;29;20021;-79
2021/05/28 01:51:18;;;;;;;6.05;3.30;;;;;;;9.66;100.00;95977.00;1010045;29;20028;-79
2021/05/28 01:52:23;;;;;;;6.82;3.20;;;;;;;9.50;100.00;95946.88;996094;29;20046;-79
2021/05/28 01:52:53;;;;;;;5.68;3.45;;;;;;;9.61;100.00;95978.34;1001026;29;20022;-79
2021/05/28 01:53:58;;;;;;;4.82;2.92;;;;;;;9.61;100.00;95978.34;1011238;29;20057;-78
2021/05/28 01:54:29;;;;;;;7.30;3.65;;;;;;;9.60;100.00;95973.22;1008861;29;20040;-79
2021/05/28 01:55:00;;;;;;;5.80;2.90;;;;;;;9.52;100.00;95962.63;1012035;23;20014;-78
2021/05/28 01:55:30;;;;;;;6.22;3.28;;;;;;;9.42;100.00;95941.56;1004911;29;20036;-78
2021/05/28 01:56:01;;;;;;;4.90;3.15;;;;;;;9.54;100.00;95955.31;1000940;29;20083;-78
2021/05/28 01:56:31;;;;;;;4.80;3.15;;;;;;;9.51;100.00;95956.50;1004697;29;20020;-78
2021/05/28 01:57:02;;;;;;;6.35;3.67;;;;;;;9.59;100.00;95967.06;997426;29;20473;-78
2021/05/28 01:57:33;;;;;;;5.88;2.90;;;;;;;9.66;100.00;95969.03;997391;29;20057;-78
2021/05/28 01:58:16;;;;;;;5.78;3.15;;;;;;;9.61;100.00;95962.44;1004762;29;20073;-78
2021/05/28 01:58:47;;;;;;;4.05;2.88;;;;;;;9.69;100.00;95969.53;1005199;29;20101;-78
2021/05/28 01:59:24;;;;;;;5.45;3.10;;;;;;;9.65;100.00;95972.69;1002660;29;20018;-78
2021/05/28 01:59:54;;;;;;;5.25;3.67;;;;;;;9.50;100.00;95957.47;1004950;29;20096;-78
2021/05/28 02:00:25;;;;;;;5.53;3.58;;;;;;;9.44;100.00;95944.91;1001187;29;20504;-78
2021/05/28 02:00:56;;;;;;;6.55;3.55;;;;;;;9.59;100.00;95964.41;1001074;29;20029;-78
2021/05/28 02:01:29;;;;;;;4.57;2.85;;;;;;;9.63;100.00;95971.03;1001178;29;20028;-78
2021/05/28 02:02:00;;;;;;;4.30;3.10;;;;;;;9.51;100.00;95945.88;993570;29;20027;-78
2021/05/28 02:02:31;;;;;;;4.15;3.10;;;;;;;9.50;100.00;95941.56;1004995;29;20492;-77
2021/05/28 02:03:01;;;;;;;4.45;2.80;;;;;;;9.49;100.00;95941.75;1006912;29;20021;-78
2021/05/28 02:03:32;;;;;;;4.88;3.20;;;;;;;9.55;100.00;95962.28;997392;29;20023;-78
2021/05/28 02:04:03;;;;;;;8.13;3.63;;;;;;;9.56;100.00;95964.78;1004757;29;20117;-78
2021/05/28 02:04:34;;;;;;;5.40;3.13;;;;;;;9.62;100.00;95973.88;1005027;29;20065;-77
2021/05/28 02:05:05;;;;;;;4.85;2.88;;;;;;;9.52;100.00;95952.00;1003468;29;20026;-78
2021/05/28 02:05:36;;;;;;;4.63;3.13;;;;;;;9.47;100.00;95951.69;1004913;29;20053;-77
2021/05/28 02:06:07;;;;;;;7.22;3.13;;;;;;;9.61;100.00;95975.69;1001122;29;20022;-77
2021/05/28 02:06:38;;;;;;;5.30;3.22;;;;;;;9.44;100.00;95971.41;1009719;29;20017;-78
2021/05/28 02:07:10;;;;;;;5.07;3.08;;;;;;;9.45;100.00;95983.66;1004978;29;20020;-80
2021/05/28 02:07:41;;;;;;;5.68;3.10;;;;;;;9.27;100.00;95967.13;1005291;29;20025;-78
2021/05/28 02:08:12;;;;;;;4.78;3.13;;;;;;;9.18;100.00;95953.88;1004712;29;20018;-78
2021/05/28 02:08:43;;;;;;;6.72;3.15;;;;;;;9.23;100.00;95975.41;1005272;29;20010;-78
2021/05/28 02:09:13;;;;;;;4.63;2.90;;;;;;;9.23;100.00;95975.41;997485;29;20537;-78
2021/05/28 02:09:44;;;;;;;4.75;3.47;;;;;;;9.28;100.00;95971.44;997219;29;20033;-78
2021/05/28 02:10:14;;;;;;;6.03;3.50;;;;;;;9.15;100.00;95956.06;1001113;29;20025;-78
2021/05/28 02:10:46;;;;;;;5.15;3.35;;;;;;;9.30;100.00;95975.59;1008811;29;20029;-77
2021/05/28 02:11:16;;;;;;;6.30;3.22;;;;;;;9.21;100.00;95969.47;994106;29;20550;-77
2021/05/28 02:11:47;;;;;;;4.20;3.00;;;;;;;8.84;100.00;95906.38;1001176;29;20029;-77
2021/05/28 02:12:19;;;;;;;5.25;3.03;;;;;;;9.19;100.00;95966.13;993838;29;20133;-78
2021/05/28 02:12:49;;;;;;;4.88;3.13;;;;;;;9.17;100.00;95960.16;993823;29;20481;-77
2021/05/28 02:13:23;;;;;;;5.55;2.85;;;;;;;9.16;100.00;95952.38;1012717;29;20032;-79
2021/05/28 02:13:53;;;;;;;7.80;3.55;;;;;;;9.09;100.00;95952.25;1001248;29;20038;-78
2021/05/28 02:14:27;;;;;;;5.03;2.78;;;;;;;9.21;100.00;95972.13;1004791;29;20476;-78
2021/05/28 02:15:00;;;;;;;6.05;2.97;;;;;;;9.14;100.00;95952.56;998970;29;20030;-78
2021/05/28 02:15:31;;;;;;;5.18;3.00;;;;;;;9.10;100.00;95947.78;1005380;29;20647;-76
2021/05/28 02:16:02;;;;;;;3.70;2.80;;;;;;;9.22;100.00;95976.41;997729;29;20512;-78
2021/05/28 02:16:33;;;;;;;4.80;2.83;;;;;;;9.05;100.00;95946.44;1004862;29;20113;-78
2021/05/28 02:17:04;;;;;;;4.65;2.72;;;;;;;9.16;100.00;95958.53;1005188;29;20042;-78
2021/05/28 02:17:34;;;;;;;3.67;2.90;;;;;;;9.27;100.00;95972.44;1004980;29;20025;-77
2021/05/28 02:18:06;;;;;;;5.30;3.08;;;;;;;9.23;100.00;95959.50;1008673;29;20025;-78
2021/05/28 02:18:36;;;;;;;5.78;2.88;;;;;;;9.18;100.00;95964.50;997458;29;20034;-78
2021/05/28 02:19:08;;;;;;;4.43;3.03;;;;;;;9.25;100.00;95972.59;1001140;29;20026;-77
2021/05/28 02:19:39;;;;;;;5.03;3.00;;;;;;;9.23;100.00;95969.25;1001146;29;20029;-78
2021/05/28 02:20:10;;;;;;;4.75;2.70;;;;;;;9.25;100.00;95973.41;997287;29;20033;-78
2021/05/28 02:20:41;;;;;;;4.22;2.60;;;;;;;9.16;100.00;95955.88;1004835;29;20061;-78
2021/05/28 02:21:11;;;;;;;4.90;2.97;;;;;;;9.19;100.00;95979.38;1004978;29;20029;-77
2021/05/28 02:21:42;;;;;;;4.65;2.75;;;;;;;8.99;100.00;95951.59;1008411;29;20115;-78
2021/05/28 02:22:13;;;;;;;8.38;2.78;;;;;;;9.00;100.00;95948.75;1012609;29;20032;-78
2021/05/28 02:22:44;;;;;;;4.93;2.70;;;;;;;9.10;100.00;95956.53;1008775;29;20052;-78
2021/05/28 02:23:14;;;;;;;4.70;2.67;;;;;;;9.17;100.00;95968.13;1008656;29;20024;-79
2021/05/28 02:23:45;;;;;;;4.38;3.05;;;;;;;9.09;100.00;95972.59;1000938;29;20042;-78
2021/05/28 02:24:16;;;;;;;3.55;2.70;;;;;;;9.09;100.00;95976.09;1001106;29;20037;-77
2021/05/28 02:24:47;;;;;;;3.53;2.78;;;;;;;8.99;100.00;95960.34;1008866;29;20021;-77
2021/05/28 02:25:18;;;;;;;3.55;2.75;;;;;;;9.04;100.00;95973.09;1004873;29;20025;-78
2021/05/28 02:25:48;;;;;;;4.43;2.70;;;;;;;9.01;100.00;95962.84;1004961;29;20432;-77
2021/05/28 02:26:19;;;;;;;4.38;2.65;;;;;;;8.94;100.00;95951.25;1001177;29;20428;-77
2021/05/28 02:26:50;;;;;;;5.05;3.08;;;;;;;9.05;100.00;95972.09;997309;29;20033;-77
2021/05/28 02:27:21;;;;;;;6.60;2.90;;;;;;;8.85;100.00;95961.03;1004820;29;20033;-77
2021/05/28 02:27:52;;;;;;;7.45;3.80;;;;;;;8.91;100.00;95975.41;1001853;29;20498;-78